Oban — PDWJ — position and weather

sailwx.info

Track history (hours):
 
Tides and Currents Weather Stations Pressure Air Temp Water Temp Dewpoint Dewpoint Depression Visibility Wind Speed Wind Dir Waves Ship Positions

Oban

Last reported at 2020-Sep-23 01:52 UTC. Time now 2020-Sep-23 03:56 UTC.
Position N 54°41' E 009°60'.

Length 39 m; draft 2.8 m.

Type: Sailing vessel. MMSI: 246085000.

Date/timePositionNaut miles runAvg speedWind from/ knotsBaromVisibWave heightAir tempDewpointWater temp
2020-Sep-23 01:52N 54°41' E 009°60'2 0.2
2020-Sep-22 12:00N 54°41' E 010°03'3 2.6
2020-Sep-22 11:01N 54°39' E 010°04'2 1.8
2020-Sep-22 10:00N 54°37' E 010°04'1 1.2
2020-Sep-22 09:31N 54°36' E 010°03'2 1.1
2020-Sep-22 08:01N 54°35' E 010°02'0 0.0
2020-Sep-22 07:31N 54°35' E 010°02'0 0.0
2020-Sep-22 07:00N 54°35' E 010°02'0 0.0
2020-Sep-22 05:01N 54°35' E 010°02'0 0.0
2020-Sep-22 04:00N 54°35' E 010°02'0 0.0
2020-Sep-22 03:30N 54°35' E 010°02'0 0.0
2020-Sep-21 23:00N 54°35' E 010°02'0 0.0
2020-Sep-21 22:01N 54°35' E 010°02'0 0.0
2020-Sep-21 21:31N 54°35' E 010°02'0 0.0
2020-Sep-21 20:30N 54°35' E 010°02'0 0.0
2020-Sep-21 17:30N 54°35' E 010°02'0 0.0
2020-Sep-21 16:00N 54°35' E 010°02'5 2.7
2020-Sep-21 14:00N 54°31' E 010°08'11 3.1
2020-Sep-21 10:31N 54°20' E 010°09'0 0.0
2020-Sep-21 08:30N 54°20' E 010°09'0 0.0
2020-Sep-21 07:30N 54°20' E 010°09'0 0.0
2020-Sep-21 05:30N 54°20' E 010°09'0 0.0
2020-Sep-21 01:30N 54°20' E 010°09'0 0.0
2020-Sep-21 00:30N 54°20' E 010°09'0 0.0
2020-Sep-20 23:30N 54°20' E 010°09'0 0.0
2020-Sep-20 19:30N 54°20' E 010°09'0 0.0
2020-Sep-20 19:00N 54°20' E 010°09'0 0.0
2020-Sep-20 18:00N 54°20' E 010°09'0 0.0
2020-Sep-20 17:30N 54°20' E 010°09'0 0.0
2020-Sep-20 17:00N 54°20' E 010°09'0 0.0
2020-Sep-20 16:31N 54°20' E 010°09'0 0.0
2020-Sep-20 16:00N 54°20' E 010°09'0 0.0
2020-Sep-20 14:30N 54°20' E 010°09'11 5.5
2020-Sep-20 12:30N 54°30' E 010°16'3 6.7
2020-Sep-20 12:00N 54°33' E 010°20'3 6.5
2020-Sep-20 11:30N 54°36' E 010°23'5 5.0
2020-Sep-20 10:30N 54°40' E 010°28'7 3.3
2020-Sep-20 08:30N 54°46' E 010°31'5 3.3
2020-Sep-20 07:00N 54°51' E 010°31'0 0.0
2020-Sep-20 06:00N 54°51' E 010°31'0 0.0
2020-Sep-20 00:00N 54°51' E 010°31'0 0.0
2020-Sep-19 20:30N 54°51' E 010°31'0 0.0
2020-Sep-19 19:00N 54°51' E 010°31'0 0.0
2020-Sep-19 17:30N 54°51' E 010°31'0 0.0
2020-Sep-19 16:30N 54°51' E 010°31'0 0.0
2020-Sep-19 14:00N 54°51' E 010°31'3 0.9
2020-Sep-19 11:00N 54°54' E 010°32'5 4.9
2020-Sep-19 10:00N 54°57' E 010°26'11 4.3
2020-Sep-19 07:25N 55°03' E 010°10'0 0.0
2020-Sep-19 07:00N 55°03' E 010°10'0 0.0
2020-Sep-19 04:55N 55°03' E 010°10'0 0.0
2020-Sep-19 04:04N 55°03' E 010°10'0 0.0
2020-Sep-18 17:35N 55°03' E 010°10'0 0.0
2020-Sep-18 14:58N 55°03' E 010°10'0 0.0
2020-Sep-18 13:30N 55°03' E 010°10'14 4.5
2020-Sep-18 10:30N 54°50' E 010°06'10 3.2
2020-Sep-18 07:29N 54°40' E 010°02'0 0.0
2020-Sep-18 06:50N 54°40' E 010°02'0 0.0
2020-Sep-18 04:58N 54°40' E 010°02'0 0.0
2020-Sep-18 02:52N 54°40' E 010°02'0 0.0
2020-Sep-18 00:41N 54°40' E 010°02'0 0.0
2020-Sep-17 15:02N 54°40' E 010°02'3 5.3
2020-Sep-17 14:30N 54°38' E 010°03'3 1.3
2020-Sep-17 12:01N 54°35' E 010°06'14 3.6
2020-Sep-17 08:00N 54°21' E 010°10'0 0.9
2020-Sep-17 07:30N 54°20' E 010°09'0 0.0
2020-Sep-17 07:00N 54°20' E 010°09'0 0.0
2020-Sep-17 06:30N 54°20' E 010°09'0 0.0
2020-Sep-17 03:30N 54°20' E 010°09'0 0.0
2020-Sep-17 03:00N 54°20' E 010°09'0 0.0
2020-Sep-17 01:30N 54°20' E 010°09'0 0.0
2020-Sep-17 01:00N 54°20' E 010°09'0 0.0
2020-Sep-17 00:30N 54°20' E 010°09'0 0.0
2020-Sep-17 00:00N 54°20' E 010°09'0 0.0
2020-Sep-16 20:28N 54°20' E 010°09'0 0.0
2020-Sep-16 18:31N 54°20' E 010°09'0 0.0
2020-Sep-16 18:00N 54°20' E 010°09'0 0.0
2020-Sep-16 17:00N 54°20' E 010°09'0 0.0
2020-Sep-16 16:31N 54°20' E 010°09'0 0.0
2020-Sep-16 12:00N 54°20' E 010°09'0 0.0
2020-Sep-16 07:00N 54°20' E 010°09'0 0.0
2020-Sep-16 05:00N 54°20' E 010°09'0 0.0
2020-Sep-16 04:30N 54°20' E 010°09'0 0.0
2020-Sep-16 04:00N 54°20' E 010°09'0 0.0
2020-Sep-16 03:00N 54°20' E 010°09'0 0.0
2020-Sep-16 00:00N 54°20' E 010°09'0 0.0
2020-Sep-15 23:30N 54°20' E 010°09'0 0.0
2020-Sep-15 22:30N 54°20' E 010°09'0 0.0
2020-Sep-15 20:30N 54°20' E 010°09'0 0.0
2020-Sep-15 14:00N 54°20' E 010°09'3 6.2
2020-Sep-15 13:30N 54°23' E 010°11'10 6.7
2020-Sep-15 12:01N 54°33' E 010°17'13 5.2
2020-Sep-15 09:31N 54°44' E 010°28'7 3.5
2020-Sep-15 07:30N 54°50' E 010°33'1 0.6
2020-Sep-15 05:30N 54°51' E 010°31'0 0.0
2020-Sep-15 03:00N 54°51' E 010°31'0 0.0
2020-Sep-15 02:30N 54°51' E 010°31'0 0.0
2020-Sep-14 21:00N 54°51' E 010°31'0 0.0
2020-Sep-14 20:00N 54°51' E 010°31'0 0.0
2020-Sep-14 14:30N 54°51' E 010°31'3 1.7
2020-Sep-14 12:30N 54°55' E 010°31'8 3.1
2020-Sep-14 10:00N 54°58' E 010°19'8 1.0
2020-Sep-14 02:41N 55°03' E 010°10'0 0.0
2020-Sep-14 02:30N 55°03' E 010°10'  
Track history (hours):
 
Tides and Currents Weather Stations Pressure Air Temp Water Temp Dewpoint Dewpoint Depression Visibility Wind Speed Wind Dir Waves Ship Positions

Oban

Last reported at 2020-Sep-23 01:52 UTC. Time now 2020-Sep-23 03:56 UTC.
Position N 54°41' E 009°60'.

Length 39 m; draft 2.8 m.

Type: Sailing vessel. MMSI: 246085000.

Date/timePositionNaut miles runAvg speedWind from/ knotsBaromVisibWave heightAir tempDewpointWater temp
2020-Sep-23 01:52N 54°41' E 009°60'2 0.2
2020-Sep-22 12:00N 54°41' E 010°03'3 2.6
2020-Sep-22 11:01N 54°39' E 010°04'2 1.8
2020-Sep-22 10:00N 54°37' E 010°04'1 1.2
2020-Sep-22 09:31N 54°36' E 010°03'2 1.1
2020-Sep-22 08:01N 54°35' E 010°02'0 0.0
2020-Sep-22 07:31N 54°35' E 010°02'0 0.0
2020-Sep-22 07:00N 54°35' E 010°02'0 0.0
2020-Sep-22 05:01N 54°35' E 010°02'0 0.0
2020-Sep-22 04:00N 54°35' E 010°02'0 0.0
2020-Sep-22 03:30N 54°35' E 010°02'0 0.0
2020-Sep-21 23:00N 54°35' E 010°02'0 0.0
2020-Sep-21 22:01N 54°35' E 010°02'0 0.0
2020-Sep-21 21:31N 54°35' E 010°02'0 0.0
2020-Sep-21 20:30N 54°35' E 010°02'0 0.0
2020-Sep-21 17:30N 54°35' E 010°02'0 0.0
2020-Sep-21 16:00N 54°35' E 010°02'5 2.7
2020-Sep-21 14:00N 54°31' E 010°08'11 3.1
2020-Sep-21 10:31N 54°20' E 010°09'0 0.0
2020-Sep-21 08:30N 54°20' E 010°09'0 0.0
2020-Sep-21 07:30N 54°20' E 010°09'0 0.0
2020-Sep-21 05:30N 54°20' E 010°09'0 0.0
2020-Sep-21 01:30N 54°20' E 010°09'0 0.0
2020-Sep-21 00:30N 54°20' E 010°09'0 0.0
2020-Sep-20 23:30N 54°20' E 010°09'0 0.0
2020-Sep-20 19:30N 54°20' E 010°09'0 0.0
2020-Sep-20 19:00N 54°20' E 010°09'0 0.0
2020-Sep-20 18:00N 54°20' E 010°09'0 0.0
2020-Sep-20 17:30N 54°20' E 010°09'0 0.0
2020-Sep-20 17:00N 54°20' E 010°09'0 0.0
2020-Sep-20 16:31N 54°20' E 010°09'0 0.0
2020-Sep-20 16:00N 54°20' E 010°09'0 0.0
2020-Sep-20 14:30N 54°20' E 010°09'11 5.5
2020-Sep-20 12:30N 54°30' E 010°16'3 6.7
2020-Sep-20 12:00N 54°33' E 010°20'3 6.5
2020-Sep-20 11:30N 54°36' E 010°23'5 5.0
2020-Sep-20 10:30N 54°40' E 010°28'7 3.3
2020-Sep-20 08:30N 54°46' E 010°31'5 3.3
2020-Sep-20 07:00N 54°51' E 010°31'0 0.0
2020-Sep-20 06:00N 54°51' E 010°31'0 0.0
2020-Sep-20 00:00N 54°51' E 010°31'0 0.0
2020-Sep-19 20:30N 54°51' E 010°31'0 0.0
2020-Sep-19 19:00N 54°51' E 010°31'0 0.0
2020-Sep-19 17:30N 54°51' E 010°31'0 0.0
2020-Sep-19 16:30N 54°51' E 010°31'0 0.0
2020-Sep-19 14:00N 54°51' E 010°31'3 0.9
2020-Sep-19 11:00N 54°54' E 010°32'5 4.9
2020-Sep-19 10:00N 54°57' E 010°26'11 4.3
2020-Sep-19 07:25N 55°03' E 010°10'0 0.0
2020-Sep-19 07:00N 55°03' E 010°10'0 0.0
2020-Sep-19 04:55N 55°03' E 010°10'0 0.0
2020-Sep-19 04:04N 55°03' E 010°10'0 0.0
2020-Sep-18 17:35N 55°03' E 010°10'0 0.0
2020-Sep-18 14:58N 55°03' E 010°10'0 0.0
2020-Sep-18 13:30N 55°03' E 010°10'14 4.5
2020-Sep-18 10:30N 54°50' E 010°06'10 3.2
2020-Sep-18 07:29N 54°40' E 010°02'0 0.0
2020-Sep-18 06:50N 54°40' E 010°02'0 0.0
2020-Sep-18 04:58N 54°40' E 010°02'0 0.0
2020-Sep-18 02:52N 54°40' E 010°02'0 0.0
2020-Sep-18 00:41N 54°40' E 010°02'0 0.0
2020-Sep-17 15:02N 54°40' E 010°02'3 5.3
2020-Sep-17 14:30N 54°38' E 010°03'3 1.3
2020-Sep-17 12:01N 54°35' E 010°06'14 3.6
2020-Sep-17 08:00N 54°21' E 010°10'0 0.9
2020-Sep-17 07:30N 54°20' E 010°09'0 0.0
2020-Sep-17 07:00N 54°20' E 010°09'0 0.0
2020-Sep-17 06:30N 54°20' E 010°09'0 0.0
2020-Sep-17 03:30N 54°20' E 010°09'0 0.0
2020-Sep-17 03:00N 54°20' E 010°09'0 0.0
2020-Sep-17 01:30N 54°20' E 010°09'0 0.0
2020-Sep-17 01:00N 54°20' E 010°09'0 0.0
2020-Sep-17 00:30N 54°20' E 010°09'0 0.0
2020-Sep-17 00:00N 54°20' E 010°09'0 0.0
2020-Sep-16 20:28N 54°20' E 010°09'0 0.0
2020-Sep-16 18:31N 54°20' E 010°09'0 0.0
2020-Sep-16 18:00N 54°20' E 010°09'0 0.0
2020-Sep-16 17:00N 54°20' E 010°09'0 0.0
2020-Sep-16 16:31N 54°20' E 010°09'0 0.0
2020-Sep-16 12:00N 54°20' E 010°09'0 0.0
2020-Sep-16 07:00N 54°20' E 010°09'0 0.0
2020-Sep-16 05:00N 54°20' E 010°09'0 0.0
2020-Sep-16 04:30N 54°20' E 010°09'0 0.0
2020-Sep-16 04:00N 54°20' E 010°09'0 0.0
2020-Sep-16 03:00N 54°20' E 010°09'0 0.0
2020-Sep-16 00:00N 54°20' E 010°09'0 0.0
2020-Sep-15 23:30N 54°20' E 010°09'0 0.0
2020-Sep-15 22:30N 54°20' E 010°09'0 0.0
2020-Sep-15 20:30N 54°20' E 010°09'0 0.0
2020-Sep-15 14:00N 54°20' E 010°09'3 6.2
2020-Sep-15 13:30N 54°23' E 010°11'10 6.7
2020-Sep-15 12:01N 54°33' E 010°17'13 5.2
2020-Sep-15 09:31N 54°44' E 010°28'7 3.5
2020-Sep-15 07:30N 54°50' E 010°33'1 0.6
2020-Sep-15 05:30N 54°51' E 010°31'0 0.0
2020-Sep-15 03:00N 54°51' E 010°31'0 0.0
2020-Sep-15 02:30N 54°51' E 010°31'0 0.0
2020-Sep-14 21:00N 54°51' E 010°31'0 0.0
2020-Sep-14 20:00N 54°51' E 010°31'0 0.0
2020-Sep-14 14:30N 54°51' E 010°31'3 1.7
2020-Sep-14 12:30N 54°55' E 010°31'8 3.1
2020-Sep-14 10:00N 54°58' E 010°19'8 1.0
2020-Sep-14 02:41N 55°03' E 010°10'0 0.0
2020-Sep-14 02:30N 55°03' E 010°10'  

Dump ship's entire track history